SBOSBO CBG / EGSC
Speedbird OnlineSpeedbird Online CBG / EGSC

Cambridge Airport
23:32 6.9°C

Location Cambridge, United Kingdom
Latitude: 52.205002
Longitude: 0.175
Local Time 23:33 on 27 Feb 2024
UTC 0 hours (Europe/London)
METAR EGSC 271720Z 23010KT 9999 BKN043 08/02 Q1018
TAF
Weather As Of 27 Feb 2024 23:32
Description Overcast clouds
Wind 8 km/h from West (268°)
Cloud Cover 95%
Precipitation Rain: none, Snow: none
Sunrise 06:51
Sunset 17:33
NOTAM 21 active NOTAM
Rotations During the last 90 days there were
35 flights from GOT
6 flights from
35 flights to GOT
2 flights to BLL
1 flights to
Web Airport Website | Wikipedia
Codes IATA: CBG
ICAO: EGSC
Altitude 14 Meter / 47 Feet
Distance 77 KM / 48 Miles
from London.
Runways
RunwayLength (m)Surface
051965Asphalt
05G899Grass
10699Grass
231965Asphalt
23G899Grass
28699Grass
Radio
TypeDescriptionFrequency
APPCambridge Approach123.6
ATISCambridge Information134.6
RDRCambridge Radar124.975
TWRCambridge Tower122.2
Live ATC



Support Speedbird Online

© 2017-2024 Speedbird Online